Stromoygutt — LM9153 — position and weather

sailwx.info

Track history (hours):
 
Tides and Currents Weather Stations Pressure Air Temp Water Temp Dewpoint Dewpoint Depression Visibility Wind Speed Wind Dir Waves Ship Positions

Stromoygutt

Last reported at 2017-Nov-15 18:38 UTC. Time now 2017-Dec-11 00:35 UTC.
Position N 70°60' E 030°35'.
Warning: this ship's position is 25 days out of date.

Length 15 m; draft 2.5 m.

Type: Fishing. MMSI: 257101740.

Date/timePositionNaut miles runAvg speedWind from/ knotsBaromVisibWave heightAir tempDewpointWater temp
2017-Nov-15 18:38N 70°60' E 030°35'1 8.8
2017-Nov-15 18:30N 70°59' E 030°34'4 8.2
2017-Nov-15 18:00N 70°56' E 030°26'4 8.2
2017-Nov-15 17:29N 70°52' E 030°18'4 8.1
2017-Nov-15 17:00N 70°49' E 030°10'4 7.8
2017-Nov-15 16:30N 70°46' E 030°03'4 8.0
2017-Nov-15 16:00N 70°43' E 029°56'4 8.1
2017-Nov-15 15:30N 70°40' E 029°49'3 5.2
2017-Nov-15 14:59N 70°38' E 029°43'0 0.5
2017-Nov-15 14:30N 70°38' E 029°43'0 0.0
2017-Nov-15 14:00N 70°38' E 029°43'0 0.0
2017-Nov-15 13:31N 70°38' E 029°43'0 0.0
2017-Nov-15 13:00N 70°38' E 029°43'0 0.0
2017-Nov-15 12:30N 70°38' E 029°43'0 0.0
2017-Nov-15 12:00N 70°38' E 029°43'0 0.0
2017-Nov-15 11:30N 70°38' E 029°43'0 0.0
2017-Nov-15 11:00N 70°38' E 029°43'0 0.0
2017-Nov-15 10:30N 70°38' E 029°43'0 0.0
2017-Nov-15 10:00N 70°38' E 029°43'0 0.0
2017-Nov-15 09:29N 70°38' E 029°43'0 0.0
2017-Nov-15 09:00N 70°38' E 029°43'0 0.0
2017-Nov-15 08:30N 70°38' E 029°43'0 0.0
2017-Nov-15 08:00N 70°38' E 029°43'0 0.0
2017-Nov-15 07:31N 70°38' E 029°43'0 0.0
2017-Nov-15 07:00N 70°38' E 029°43'0 0.0
2017-Nov-15 06:30N 70°38' E 029°43'0 0.0
2017-Nov-15 06:00N 70°38' E 029°43'4 7.1
2017-Nov-15 05:30N 70°41' E 029°51'4 8.2
2017-Nov-15 05:00N 70°44' E 029°57'4 7.2
2017-Nov-15 04:30N 70°47' E 030°03'3 6.5
2017-Nov-15 04:00N 70°50' E 030°08'3 6.2
2017-Nov-15 03:30N 70°53' E 030°13'3 5.8
2017-Nov-15 03:01N 70°55' E 030°17'3 5.4
2017-Nov-15 02:30N 70°58' E 030°21'3 5.2
2017-Nov-15 02:00N 71°00' E 030°24'26 0.5
2017-Nov-13 02:00N 70°38' E 029°43'0 0.0
2017-Nov-13 01:30N 70°38' E 029°43'0 0.0
2017-Nov-13 01:00N 70°38' E 029°43'0 0.0
2017-Nov-13 00:29N 70°38' E 029°43'0 0.0
2017-Nov-13 00:00N 70°38' E 029°43'0 0.0
2017-Nov-12 23:30N 70°38' E 029°43'0 0.0
2017-Nov-12 23:00N 70°38' E 029°43'0 0.0
2017-Nov-12 22:30N 70°38' E 029°43'0 0.0
2017-Nov-12 22:00N 70°38' E 029°43'0 0.0
2017-Nov-12 21:30N 70°38' E 029°43'0 0.0
2017-Nov-12 21:00N 70°38' E 029°43'0 0.0
2017-Nov-12 20:30N 70°38' E 029°43'0 0.0
2017-Nov-12 20:00N 70°38' E 029°43'0 0.0
2017-Nov-12 19:30N 70°38' E 029°43'0 0.0
2017-Nov-12 19:00N 70°38' E 029°43'0 0.0
2017-Nov-12 18:30N 70°38' E 029°43'0 0.0
2017-Nov-12 18:00N 70°38' E 029°43'0 0.0
2017-Nov-12 17:30N 70°38' E 029°43'0 0.0
2017-Nov-12 17:00N 70°38' E 029°43'0 0.0
2017-Nov-12 16:30N 70°38' E 029°43'0 0.0
2017-Nov-12 16:00N 70°38' E 029°43'0 0.0
2017-Nov-12 15:30N 70°38' E 029°43'0 0.0
2017-Nov-12 15:00N 70°38' E 029°43'0 0.0
2017-Nov-12 14:29N 70°38' E 029°43'0 0.0
2017-Nov-12 14:00N 70°38' E 029°43'0 0.0
2017-Nov-12 13:30N 70°38' E 029°43'0 0.0
2017-Nov-12 13:00N 70°38' E 029°43'0 0.0
2017-Nov-12 12:29N 70°38' E 029°43'0 0.0
2017-Nov-12 12:00N 70°38' E 029°43'0 0.0
2017-Nov-12 11:30N 70°38' E 029°43'0 0.0
2017-Nov-12 11:00N 70°38' E 029°43'0 0.0
2017-Nov-12 10:30N 70°38' E 029°43'0 0.0
2017-Nov-12 10:00N 70°38' E 029°43'0 0.0
2017-Nov-12 09:30N 70°38' E 029°43'0 0.0
2017-Nov-12 09:00N 70°38' E 029°43'0 0.0
2017-Nov-12 08:30N 70°38' E 029°43'0 0.0
2017-Nov-12 08:01N 70°38' E 029°43'2 4.3
2017-Nov-12 07:30N 70°39' E 029°48'4 7.9
2017-Nov-12 07:00N 70°43' E 029°56'4 8.1
2017-Nov-12 06:29N 70°46' E 030°04'4 7.7
2017-Nov-12 06:00N 70°49' E 030°10'3 7.0
2017-Nov-12 05:30N 70°52' E 030°16'3 6.2
2017-Nov-12 05:00N 70°55' E 030°20'3 6.4
2017-Nov-12 04:30N 70°57' E 030°25'3 6.6
2017-Nov-12 04:00N 71°00' E 030°31'1 0.0
2017-Nov-10 19:49N 71°01' E 030°30'3 9.0
2017-Nov-10 19:30N 70°59' E 030°26'4 8.7
2017-Nov-10 19:00N 70°55' E 030°20'4 8.4
2017-Nov-10 18:30N 70°51' E 030°14'4 8.4
2017-Nov-10 18:00N 70°48' E 030°07'4 8.3
2017-Nov-10 17:30N 70°44' E 029°59'4 8.3
2017-Nov-10 17:00N 70°41' E 029°52'4 8.0
2017-Nov-10 16:30N 70°38' E 029°44'0 0.6
2017-Nov-10 16:00N 70°38' E 029°43'0 0.0
2017-Nov-10 15:30N 70°38' E 029°43'0 0.0
2017-Nov-10 15:00N 70°38' E 029°43'0 0.0
2017-Nov-10 14:30N 70°38' E 029°43'0 0.0
2017-Nov-10 14:00N 70°38' E 029°43'0 0.0
2017-Nov-10 13:30N 70°38' E 029°43'0 0.0
2017-Nov-10 12:59N 70°38' E 029°43'0 0.0
2017-Nov-10 12:30N 70°38' E 029°43'0 0.0
2017-Nov-10 12:00N 70°38' E 029°43'0 0.1
2017-Nov-10 11:30N 70°38' E 029°43'0 0.5
2017-Nov-10 11:00N 70°38' E 029°43'0 0.0
2017-Nov-10 10:30N 70°38' E 029°43'0 0.5
2017-Nov-10 10:00N 70°38' E 029°43'0 0.0
2017-Nov-10 09:30N 70°38' E 029°43'0 0.0
2017-Nov-10 09:00N 70°38' E 029°43'0 0.0
2017-Nov-10 08:30N 70°38' E 029°43'0 0.0
2017-Nov-10 08:00N 70°38' E 029°43'0 0.0
2017-Nov-10 07:30N 70°38' E 029°43'0 0.0
2017-Nov-10 07:00N 70°38' E 029°43'0 0.0
2017-Nov-10 06:30N 70°38' E 029°43'0 0.0
2017-Nov-10 06:00N 70°38' E 029°43'2 3.0
2017-Nov-10 05:30N 70°39' E 029°47'3 6.8
2017-Nov-10 05:00N 70°42' E 029°53'3 6.6
2017-Nov-10 04:30N 70°43' E 030°02'3 6.5
2017-Nov-10 04:00N 70°44' E 030°12'3 6.6
2017-Nov-10 03:30N 70°45' E 030°21'3 6.8
2017-Nov-10 03:00N 70°46' E 030°30'3 7.0
2017-Nov-10 02:30N 70°47' E 030°41'4 7.3
2017-Nov-10 02:00N 70°47' E 030°52'4 7.3
2017-Nov-10 01:30N 70°48' E 031°02'3 0.1
2017-Nov-08 21:51N 70°49' E 031°10'3 8.1
2017-Nov-08 21:29N 70°48' E 031°02'4 8.1
2017-Nov-08 21:00N 70°47' E 030°50'4 8.4
2017-Nov-08 20:30N 70°47' E 030°38'4 8.8
2017-Nov-08 20:00N 70°46' E 030°25'5 9.1
2017-Nov-08 19:30N 70°44' E 030°11'5 9.8
2017-Nov-08 19:00N 70°43' E 029°57'5 9.1
2017-Nov-08 18:30N 70°39' E 029°48'2 4.2
2017-Nov-08 18:00N 70°38' E 029°43'0 0.0
2017-Nov-08 17:30N 70°38' E 029°43'0 0.0
2017-Nov-08 17:00N 70°38' E 029°43'0 0.0
2017-Nov-08 16:31N 70°38' E 029°43'0 0.0
2017-Nov-08 16:00N 70°38' E 029°43'0 0.0
2017-Nov-08 15:30N 70°38' E 029°43'0 0.0
2017-Nov-08 15:00N 70°38' E 029°43'0 0.0
2017-Nov-08 14:30N 70°38' E 029°43'0 0.0
2017-Nov-08 13:59N 70°38' E 029°43'0 0.0
2017-Nov-08 13:30N 70°38' E 029°43'0 0.0
2017-Nov-08 13:00N 70°38' E 029°43'0 0.0
2017-Nov-08 12:30N 70°38' E 029°43'0 0.0
2017-Nov-08 12:00N 70°38' E 029°43'0 0.0
2017-Nov-08 11:30N 70°38' E 029°43'0 0.0
2017-Nov-08 11:01N 70°38' E 029°43'0 0.0
2017-Nov-08 10:30N 70°38' E 029°43'0 0.0
2017-Nov-08 09:59N 70°38' E 029°43'0 0.0
2017-Nov-08 09:30N 70°38' E 029°43'0 0.0
2017-Nov-08 09:00N 70°38' E 029°43'0 0.0
2017-Nov-08 08:30N 70°38' E 029°43'0 0.0
2017-Nov-08 08:00N 70°38' E 029°43'0 0.0
2017-Nov-08 07:30N 70°38' E 029°43'0 0.0
2017-Nov-08 07:00N 70°38' E 029°43'0 0.0
2017-Nov-08 06:30N 70°38' E 029°43'0 0.0
2017-Nov-08 06:01N 70°38' E 029°43'0 0.0
2017-Nov-08 05:30N 70°38' E 029°43'0 0.0
2017-Nov-08 05:00N 70°38' E 029°43'0 0.0
2017-Nov-08 04:30N 70°38' E 029°43'0 0.0
2017-Nov-08 04:00N 70°38' E 029°43'0 0.0
2017-Nov-08 03:30N 70°38' E 029°43'0 0.0
2017-Nov-08 03:01N 70°38' E 029°43'0 0.0
2017-Nov-08 02:30N 70°38' E 029°43'0 0.0
2017-Nov-08 02:00N 70°38' E 029°43'0 0.0
2017-Nov-08 01:30N 70°38' E 029°43'0 0.0
2017-Nov-08 01:00N 70°38' E 029°43'0 0.0
2017-Nov-08 00:31N 70°38' E 029°43'0 0.0
2017-Nov-08 00:00N 70°38' E 029°43'0 0.0
2017-Nov-07 23:30N 70°38' E 029°43'0 0.0
2017-Nov-07 23:00N 70°38' E 029°43'0 0.0
2017-Nov-07 22:30N 70°38' E 029°43'0 0.0
2017-Nov-07 22:00N 70°38' E 029°43'0 0.0
2017-Nov-07 21:30N 70°38' E 029°43'0 0.0
2017-Nov-07 21:00N 70°38' E 029°43'0 0.0
2017-Nov-07 20:30N 70°38' E 029°43'0 0.0
2017-Nov-07 19:59N 70°38' E 029°43'0 0.0
2017-Nov-07 19:30N 70°38' E 029°43'0 0.0
2017-Nov-07 19:00N 70°38' E 029°43'0 0.0
2017-Nov-07 18:30N 70°38' E 029°43'0 0.0
2017-Nov-07 18:00N 70°38' E 029°43'0 0.0
2017-Nov-07 17:29N 70°38' E 029°43'0 0.0
2017-Nov-07 17:00N 70°38' E 029°43'0 0.0
2017-Nov-07 16:31N 70°38' E 029°43'0 0.0
2017-Nov-07 15:59N 70°38' E 029°43'0 0.0
2017-Nov-07 15:30N 70°38' E 029°43'0 0.0
2017-Nov-07 15:00N 70°38' E 029°43'0 0.0
2017-Nov-07 14:30N 70°38' E 029°43'0 0.0
2017-Nov-07 14:00N 70°38' E 029°43'0 0.0
2017-Nov-07 13:30N 70°38' E 029°43'0 0.0
2017-Nov-07 13:00N 70°38' E 029°43'0 0.0
2017-Nov-07 12:30N 70°38' E 029°43'0 0.0
2017-Nov-07 12:00N 70°38' E 029°43'0 0.0
2017-Nov-07 11:30N 70°38' E 029°43'0 0.0
2017-Nov-07 11:00N 70°38' E 029°43'0 0.0
2017-Nov-07 10:30N 70°38' E 029°43'0 0.0
2017-Nov-07 10:00N 70°38' E 029°43'0 0.0
2017-Nov-07 09:30N 70°38' E 029°43'0 0.0
2017-Nov-07 09:00N 70°38' E 029°43'0 0.0
2017-Nov-07 08:30N 70°38' E 029°43'0 0.0
2017-Nov-07 07:59N 70°38' E 029°43'0 0.0
2017-Nov-07 07:30N 70°38' E 029°43'0 0.0
2017-Nov-07 07:00N 70°38' E 029°43'0 0.0
2017-Nov-07 06:30N 70°38' E 029°43'0 0.0
2017-Nov-07 06:00N 70°38' E 029°43'0 0.0
2017-Nov-07 05:30N 70°38' E 029°43'0 0.0
2017-Nov-07 05:00N 70°38' E 029°43'0 0.0
2017-Nov-07 04:30N 70°38' E 029°43'0 0.0
2017-Nov-07 04:00N 70°38' E 029°43'0 0.0
2017-Nov-07 03:30N 70°38' E 029°43'0 0.0
2017-Nov-07 03:00N 70°38' E 029°43'0 0.0
2017-Nov-07 02:30N 70°38' E 029°43'0 0.0
2017-Nov-07 02:00N 70°38' E 029°43'0 0.0
2017-Nov-07 01:30N 70°38' E 029°43'0 0.0
2017-Nov-07 00:59N 70°38' E 029°43'0 0.0
2017-Nov-07 00:30N 70°38' E 029°43'0 0.0
2017-Nov-07 00:00N 70°38' E 029°43'0 0.0
2017-Nov-06 23:30N 70°38' E 029°43'0 0.0
2017-Nov-06 23:00N 70°38' E 029°43'0 0.0
2017-Nov-06 22:30N 70°38' E 029°43'0 0.0
2017-Nov-06 21:59N 70°38' E 029°43'0 0.0
2017-Nov-06 21:29N 70°38' E 029°43'0 0.0
2017-Nov-06 21:00N 70°38' E 029°43'0 0.0
2017-Nov-06 20:30N 70°38' E 029°43'0 0.0
2017-Nov-06 02:30N 70°38' E 029°43'0 0.0
2017-Nov-06 02:00N 70°38' E 029°43'0 0.0
2017-Nov-06 01:30N 70°38' E 029°43'0 0.0
2017-Nov-06 01:00N 70°38' E 029°43'0 0.0
2017-Nov-06 00:29N 70°38' E 029°43'0 0.0
2017-Nov-06 00:00N 70°38' E 029°43'0 0.0
2017-Nov-05 23:30N 70°38' E 029°43'0 0.0
2017-Nov-05 23:00N 70°38' E 029°43'0 0.0
2017-Nov-05 22:30N 70°38' E 029°43'0 0.0
2017-Nov-05 22:00N 70°38' E 029°43'0 0.0
2017-Nov-05 21:29N 70°38' E 029°43'0 0.0
2017-Nov-05 21:00N 70°38' E 029°43'0 0.0
2017-Nov-05 20:31N 70°38' E 029°43'0 0.0
2017-Nov-05 20:00N 70°38' E 029°43'0 0.0
2017-Nov-05 19:31N 70°38' E 029°43'0 0.0
2017-Nov-05 18:59N 70°38' E 029°43'  
Track history (hours):
 
Tides and Currents Weather Stations Pressure Air Temp Water Temp Dewpoint Dewpoint Depression Visibility Wind Speed Wind Dir Waves Ship Positions

Stromoygutt

Last reported at 2017-Nov-15 18:38 UTC. Time now 2017-Dec-11 00:35 UTC.
Position N 70°60' E 030°35'.
Warning: this ship's position is 25 days out of date.

Length 15 m; draft 2.5 m.

Type: Fishing. MMSI: 257101740.

Date/timePositionNaut miles runAvg speedWind from/ knotsBaromVisibWave heightAir tempDewpointWater temp
2017-Nov-15 18:38N 70°60' E 030°35'1 8.8
2017-Nov-15 18:30N 70°59' E 030°34'4 8.2
2017-Nov-15 18:00N 70°56' E 030°26'4 8.2
2017-Nov-15 17:29N 70°52' E 030°18'4 8.1
2017-Nov-15 17:00N 70°49' E 030°10'4 7.8
2017-Nov-15 16:30N 70°46' E 030°03'4 8.0
2017-Nov-15 16:00N 70°43' E 029°56'4 8.1
2017-Nov-15 15:30N 70°40' E 029°49'3 5.2
2017-Nov-15 14:59N 70°38' E 029°43'0 0.5
2017-Nov-15 14:30N 70°38' E 029°43'0 0.0
2017-Nov-15 14:00N 70°38' E 029°43'0 0.0
2017-Nov-15 13:31N 70°38' E 029°43'0 0.0
2017-Nov-15 13:00N 70°38' E 029°43'0 0.0
2017-Nov-15 12:30N 70°38' E 029°43'0 0.0
2017-Nov-15 12:00N 70°38' E 029°43'0 0.0
2017-Nov-15 11:30N 70°38' E 029°43'0 0.0
2017-Nov-15 11:00N 70°38' E 029°43'0 0.0
2017-Nov-15 10:30N 70°38' E 029°43'0 0.0
2017-Nov-15 10:00N 70°38' E 029°43'0 0.0
2017-Nov-15 09:29N 70°38' E 029°43'0 0.0
2017-Nov-15 09:00N 70°38' E 029°43'0 0.0
2017-Nov-15 08:30N 70°38' E 029°43'0 0.0
2017-Nov-15 08:00N 70°38' E 029°43'0 0.0
2017-Nov-15 07:31N 70°38' E 029°43'0 0.0
2017-Nov-15 07:00N 70°38' E 029°43'0 0.0
2017-Nov-15 06:30N 70°38' E 029°43'0 0.0
2017-Nov-15 06:00N 70°38' E 029°43'4 7.1
2017-Nov-15 05:30N 70°41' E 029°51'4 8.2
2017-Nov-15 05:00N 70°44' E 029°57'4 7.2
2017-Nov-15 04:30N 70°47' E 030°03'3 6.5
2017-Nov-15 04:00N 70°50' E 030°08'3 6.2
2017-Nov-15 03:30N 70°53' E 030°13'3 5.8
2017-Nov-15 03:01N 70°55' E 030°17'3 5.4
2017-Nov-15 02:30N 70°58' E 030°21'3 5.2
2017-Nov-15 02:00N 71°00' E 030°24'26 0.5
2017-Nov-13 02:00N 70°38' E 029°43'0 0.0
2017-Nov-13 01:30N 70°38' E 029°43'0 0.0
2017-Nov-13 01:00N 70°38' E 029°43'0 0.0
2017-Nov-13 00:29N 70°38' E 029°43'0 0.0
2017-Nov-13 00:00N 70°38' E 029°43'0 0.0
2017-Nov-12 23:30N 70°38' E 029°43'0 0.0
2017-Nov-12 23:00N 70°38' E 029°43'0 0.0
2017-Nov-12 22:30N 70°38' E 029°43'0 0.0
2017-Nov-12 22:00N 70°38' E 029°43'0 0.0
2017-Nov-12 21:30N 70°38' E 029°43'0 0.0
2017-Nov-12 21:00N 70°38' E 029°43'0 0.0
2017-Nov-12 20:30N 70°38' E 029°43'0 0.0
2017-Nov-12 20:00N 70°38' E 029°43'0 0.0
2017-Nov-12 19:30N 70°38' E 029°43'0 0.0
2017-Nov-12 19:00N 70°38' E 029°43'0 0.0
2017-Nov-12 18:30N 70°38' E 029°43'0 0.0
2017-Nov-12 18:00N 70°38' E 029°43'0 0.0
2017-Nov-12 17:30N 70°38' E 029°43'0 0.0
2017-Nov-12 17:00N 70°38' E 029°43'0 0.0
2017-Nov-12 16:30N 70°38' E 029°43'0 0.0
2017-Nov-12 16:00N 70°38' E 029°43'0 0.0
2017-Nov-12 15:30N 70°38' E 029°43'0 0.0
2017-Nov-12 15:00N 70°38' E 029°43'0 0.0
2017-Nov-12 14:29N 70°38' E 029°43'0 0.0
2017-Nov-12 14:00N 70°38' E 029°43'0 0.0
2017-Nov-12 13:30N 70°38' E 029°43'0 0.0
2017-Nov-12 13:00N 70°38' E 029°43'0 0.0
2017-Nov-12 12:29N 70°38' E 029°43'0 0.0
2017-Nov-12 12:00N 70°38' E 029°43'0 0.0
2017-Nov-12 11:30N 70°38' E 029°43'0 0.0
2017-Nov-12 11:00N 70°38' E 029°43'0 0.0
2017-Nov-12 10:30N 70°38' E 029°43'0 0.0
2017-Nov-12 10:00N 70°38' E 029°43'0 0.0
2017-Nov-12 09:30N 70°38' E 029°43'0 0.0
2017-Nov-12 09:00N 70°38' E 029°43'0 0.0
2017-Nov-12 08:30N 70°38' E 029°43'0 0.0
2017-Nov-12 08:01N 70°38' E 029°43'2 4.3
2017-Nov-12 07:30N 70°39' E 029°48'4 7.9
2017-Nov-12 07:00N 70°43' E 029°56'4 8.1
2017-Nov-12 06:29N 70°46' E 030°04'4 7.7
2017-Nov-12 06:00N 70°49' E 030°10'3 7.0
2017-Nov-12 05:30N 70°52' E 030°16'3 6.2
2017-Nov-12 05:00N 70°55' E 030°20'3 6.4
2017-Nov-12 04:30N 70°57' E 030°25'3 6.6
2017-Nov-12 04:00N 71°00' E 030°31'1 0.0
2017-Nov-10 19:49N 71°01' E 030°30'3 9.0
2017-Nov-10 19:30N 70°59' E 030°26'4 8.7
2017-Nov-10 19:00N 70°55' E 030°20'4 8.4
2017-Nov-10 18:30N 70°51' E 030°14'4 8.4
2017-Nov-10 18:00N 70°48' E 030°07'4 8.3
2017-Nov-10 17:30N 70°44' E 029°59'4 8.3
2017-Nov-10 17:00N 70°41' E 029°52'4 8.0
2017-Nov-10 16:30N 70°38' E 029°44'0 0.6
2017-Nov-10 16:00N 70°38' E 029°43'0 0.0
2017-Nov-10 15:30N 70°38' E 029°43'0 0.0
2017-Nov-10 15:00N 70°38' E 029°43'0 0.0
2017-Nov-10 14:30N 70°38' E 029°43'0 0.0
2017-Nov-10 14:00N 70°38' E 029°43'0 0.0
2017-Nov-10 13:30N 70°38' E 029°43'0 0.0
2017-Nov-10 12:59N 70°38' E 029°43'0 0.0
2017-Nov-10 12:30N 70°38' E 029°43'0 0.0
2017-Nov-10 12:00N 70°38' E 029°43'0 0.1
2017-Nov-10 11:30N 70°38' E 029°43'0 0.5
2017-Nov-10 11:00N 70°38' E 029°43'0 0.0
2017-Nov-10 10:30N 70°38' E 029°43'0 0.5
2017-Nov-10 10:00N 70°38' E 029°43'0 0.0
2017-Nov-10 09:30N 70°38' E 029°43'0 0.0
2017-Nov-10 09:00N 70°38' E 029°43'0 0.0
2017-Nov-10 08:30N 70°38' E 029°43'0 0.0
2017-Nov-10 08:00N 70°38' E 029°43'0 0.0
2017-Nov-10 07:30N 70°38' E 029°43'0 0.0
2017-Nov-10 07:00N 70°38' E 029°43'0 0.0
2017-Nov-10 06:30N 70°38' E 029°43'0 0.0
2017-Nov-10 06:00N 70°38' E 029°43'2 3.0
2017-Nov-10 05:30N 70°39' E 029°47'3 6.8
2017-Nov-10 05:00N 70°42' E 029°53'3 6.6
2017-Nov-10 04:30N 70°43' E 030°02'3 6.5
2017-Nov-10 04:00N 70°44' E 030°12'3 6.6
2017-Nov-10 03:30N 70°45' E 030°21'3 6.8
2017-Nov-10 03:00N 70°46' E 030°30'3 7.0
2017-Nov-10 02:30N 70°47' E 030°41'4 7.3
2017-Nov-10 02:00N 70°47' E 030°52'4 7.3
2017-Nov-10 01:30N 70°48' E 031°02'3 0.1
2017-Nov-08 21:51N 70°49' E 031°10'3 8.1
2017-Nov-08 21:29N 70°48' E 031°02'4 8.1
2017-Nov-08 21:00N 70°47' E 030°50'4 8.4
2017-Nov-08 20:30N 70°47' E 030°38'4 8.8
2017-Nov-08 20:00N 70°46' E 030°25'5 9.1
2017-Nov-08 19:30N 70°44' E 030°11'5 9.8
2017-Nov-08 19:00N 70°43' E 029°57'5 9.1
2017-Nov-08 18:30N 70°39' E 029°48'2 4.2
2017-Nov-08 18:00N 70°38' E 029°43'0 0.0
2017-Nov-08 17:30N 70°38' E 029°43'0 0.0
2017-Nov-08 17:00N 70°38' E 029°43'0 0.0
2017-Nov-08 16:31N 70°38' E 029°43'0 0.0
2017-Nov-08 16:00N 70°38' E 029°43'0 0.0
2017-Nov-08 15:30N 70°38' E 029°43'0 0.0
2017-Nov-08 15:00N 70°38' E 029°43'0 0.0
2017-Nov-08 14:30N 70°38' E 029°43'0 0.0
2017-Nov-08 13:59N 70°38' E 029°43'0 0.0
2017-Nov-08 13:30N 70°38' E 029°43'0 0.0
2017-Nov-08 13:00N 70°38' E 029°43'0 0.0
2017-Nov-08 12:30N 70°38' E 029°43'0 0.0
2017-Nov-08 12:00N 70°38' E 029°43'0 0.0
2017-Nov-08 11:30N 70°38' E 029°43'0 0.0
2017-Nov-08 11:01N 70°38' E 029°43'0 0.0
2017-Nov-08 10:30N 70°38' E 029°43'0 0.0
2017-Nov-08 09:59N 70°38' E 029°43'0 0.0
2017-Nov-08 09:30N 70°38' E 029°43'0 0.0
2017-Nov-08 09:00N 70°38' E 029°43'0 0.0
2017-Nov-08 08:30N 70°38' E 029°43'0 0.0
2017-Nov-08 08:00N 70°38' E 029°43'0 0.0
2017-Nov-08 07:30N 70°38' E 029°43'0 0.0
2017-Nov-08 07:00N 70°38' E 029°43'0 0.0
2017-Nov-08 06:30N 70°38' E 029°43'0 0.0
2017-Nov-08 06:01N 70°38' E 029°43'0 0.0
2017-Nov-08 05:30N 70°38' E 029°43'0 0.0
2017-Nov-08 05:00N 70°38' E 029°43'0 0.0
2017-Nov-08 04:30N 70°38' E 029°43'0 0.0
2017-Nov-08 04:00N 70°38' E 029°43'0 0.0
2017-Nov-08 03:30N 70°38' E 029°43'0 0.0
2017-Nov-08 03:01N 70°38' E 029°43'0 0.0
2017-Nov-08 02:30N 70°38' E 029°43'0 0.0
2017-Nov-08 02:00N 70°38' E 029°43'0 0.0
2017-Nov-08 01:30N 70°38' E 029°43'0 0.0
2017-Nov-08 01:00N 70°38' E 029°43'0 0.0
2017-Nov-08 00:31N 70°38' E 029°43'0 0.0
2017-Nov-08 00:00N 70°38' E 029°43'0 0.0
2017-Nov-07 23:30N 70°38' E 029°43'0 0.0
2017-Nov-07 23:00N 70°38' E 029°43'0 0.0
2017-Nov-07 22:30N 70°38' E 029°43'0 0.0
2017-Nov-07 22:00N 70°38' E 029°43'0 0.0
2017-Nov-07 21:30N 70°38' E 029°43'0 0.0
2017-Nov-07 21:00N 70°38' E 029°43'0 0.0
2017-Nov-07 20:30N 70°38' E 029°43'0 0.0
2017-Nov-07 19:59N 70°38' E 029°43'0 0.0
2017-Nov-07 19:30N 70°38' E 029°43'0 0.0
2017-Nov-07 19:00N 70°38' E 029°43'0 0.0
2017-Nov-07 18:30N 70°38' E 029°43'0 0.0
2017-Nov-07 18:00N 70°38' E 029°43'0 0.0
2017-Nov-07 17:29N 70°38' E 029°43'0 0.0
2017-Nov-07 17:00N 70°38' E 029°43'0 0.0
2017-Nov-07 16:31N 70°38' E 029°43'0 0.0
2017-Nov-07 15:59N 70°38' E 029°43'0 0.0
2017-Nov-07 15:30N 70°38' E 029°43'0 0.0
2017-Nov-07 15:00N 70°38' E 029°43'0 0.0
2017-Nov-07 14:30N 70°38' E 029°43'0 0.0
2017-Nov-07 14:00N 70°38' E 029°43'0 0.0
2017-Nov-07 13:30N 70°38' E 029°43'0 0.0
2017-Nov-07 13:00N 70°38' E 029°43'0 0.0
2017-Nov-07 12:30N 70°38' E 029°43'0 0.0
2017-Nov-07 12:00N 70°38' E 029°43'0 0.0
2017-Nov-07 11:30N 70°38' E 029°43'0 0.0
2017-Nov-07 11:00N 70°38' E 029°43'0 0.0
2017-Nov-07 10:30N 70°38' E 029°43'0 0.0
2017-Nov-07 10:00N 70°38' E 029°43'0 0.0
2017-Nov-07 09:30N 70°38' E 029°43'0 0.0
2017-Nov-07 09:00N 70°38' E 029°43'0 0.0
2017-Nov-07 08:30N 70°38' E 029°43'0 0.0
2017-Nov-07 07:59N 70°38' E 029°43'0 0.0
2017-Nov-07 07:30N 70°38' E 029°43'0 0.0
2017-Nov-07 07:00N 70°38' E 029°43'0 0.0
2017-Nov-07 06:30N 70°38' E 029°43'0 0.0
2017-Nov-07 06:00N 70°38' E 029°43'0 0.0
2017-Nov-07 05:30N 70°38' E 029°43'0 0.0
2017-Nov-07 05:00N 70°38' E 029°43'0 0.0
2017-Nov-07 04:30N 70°38' E 029°43'0 0.0
2017-Nov-07 04:00N 70°38' E 029°43'0 0.0
2017-Nov-07 03:30N 70°38' E 029°43'0 0.0
2017-Nov-07 03:00N 70°38' E 029°43'0 0.0
2017-Nov-07 02:30N 70°38' E 029°43'0 0.0
2017-Nov-07 02:00N 70°38' E 029°43'0 0.0
2017-Nov-07 01:30N 70°38' E 029°43'0 0.0
2017-Nov-07 00:59N 70°38' E 029°43'0 0.0
2017-Nov-07 00:30N 70°38' E 029°43'0 0.0
2017-Nov-07 00:00N 70°38' E 029°43'0 0.0
2017-Nov-06 23:30N 70°38' E 029°43'0 0.0
2017-Nov-06 23:00N 70°38' E 029°43'0 0.0
2017-Nov-06 22:30N 70°38' E 029°43'0 0.0
2017-Nov-06 21:59N 70°38' E 029°43'0 0.0
2017-Nov-06 21:29N 70°38' E 029°43'0 0.0
2017-Nov-06 21:00N 70°38' E 029°43'0 0.0
2017-Nov-06 20:30N 70°38' E 029°43'0 0.0
2017-Nov-06 02:30N 70°38' E 029°43'0 0.0
2017-Nov-06 02:00N 70°38' E 029°43'0 0.0
2017-Nov-06 01:30N 70°38' E 029°43'0 0.0
2017-Nov-06 01:00N 70°38' E 029°43'0 0.0
2017-Nov-06 00:29N 70°38' E 029°43'0 0.0
2017-Nov-06 00:00N 70°38' E 029°43'0 0.0
2017-Nov-05 23:30N 70°38' E 029°43'0 0.0
2017-Nov-05 23:00N 70°38' E 029°43'0 0.0
2017-Nov-05 22:30N 70°38' E 029°43'0 0.0
2017-Nov-05 22:00N 70°38' E 029°43'0 0.0
2017-Nov-05 21:29N 70°38' E 029°43'0 0.0
2017-Nov-05 21:00N 70°38' E 029°43'0 0.0
2017-Nov-05 20:31N 70°38' E 029°43'0 0.0
2017-Nov-05 20:00N 70°38' E 029°43'0 0.0
2017-Nov-05 19:31N 70°38' E 029°43'0 0.0
2017-Nov-05 18:59N 70°38' E 029°43'  

Dump ship's entire track history